Time;durP1;ratioP1;P1;durP2;ratioP2;P2;SDS_P1;SDS_P2;PMS_P1;PMS_P2;Temp;Humidity;BMP_temperature;BMP_pressure;BME280_temperature;BME280_humidity;BME280_pressure;Samples;Min_cycle;Max_cycle;Signal;HPM_P1;HPM_P2
2022/09/05 00:00:09;;;;;;;6.30;3.83;;;;;;;;;;5064538;28;20048;-62
2022/09/05 00:02:49;;;;;;;6.88;3.22;;;;;;;;;;5064656;28;20076;-62
2022/09/05 00:05:27;;;;;;;7.85;3.30;;;;;;;;;;5062995;28;20048;-62
2022/09/05 00:07:59;;;;;;;4.60;3.17;;;;;;;;;;5063104;28;20099;-62
2022/09/05 00:10:41;;;;;;;9.45;3.70;;;;;;;;;;5063800;28;20128;-62
2022/09/05 00:13:16;;;;;;;9.02;3.50;;;;;;;;;;5063795;28;20121;-62
2022/09/05 00:15:52;;;;;;;5.57;3.50;;;;;;;;;;5064342;28;20370;-62
2022/09/05 00:18:19;;;;;;;8.20;4.28;;;;;;;;;;5064393;28;20040;-62
2022/09/05 00:20:51;;;;;;;6.63;3.45;;;;;;;;;;5061991;28;20051;-62
2022/09/05 00:23:35;;;;;;;4.28;3.30;;;;;;;;;;5064337;28;20105;-62
2022/09/05 00:26:25;;;;;;;4.28;3.42;;;;;;;;;;5051734;28;20433;-62
2022/09/05 00:28:56;;;;;;;4.80;3.40;;;;;;;;;;5063799;28;20119;-62
2022/09/05 00:31:36;;;;;;;7.30;5.05;;;;;;;;;;5063940;28;20804;-62
2022/09/05 00:34:21;;;;;;;5.22;3.03;;;;;;;;;;5063364;28;20036;-62
2022/09/05 00:36:48;;;;;;;6.80;3.25;;;;;;;;;;5064083;28;20106;-62
2022/09/05 00:39:20;;;;;;;7.18;3.47;;;;;;;;;;5063236;28;20094;-62
2022/09/05 00:41:49;;;;;;;5.30;3.53;;;;;;;;;;5063681;28;20083;-62
2022/09/05 00:44:15;;;;;;;;;;;;;;;;;;5064038;28;20109;-62
2022/09/05 00:46:46;;;;;;;5.10;3.55;;;;;;;;;;5063108;28;19924;-62
2022/09/05 00:49:22;;;;;;;5.45;3.70;;;;;;;;;;5062967;28;20406;-62
2022/09/05 00:51:53;;;;;;;8.95;3.92;;;;;;;;;;5062340;28;20247;-62
2022/09/05 00:54:19;;;;;;;6.60;3.80;;;;;;;;;;5063250;28;20247;-62
2022/09/05 00:56:46;;;;;;;5.28;3.95;;;;;;;;;;5063593;28;20036;-62
2022/09/05 00:59:31;;;;;;;6.38;3.92;;;;;;;;;;5063343;28;20059;-62
2022/09/05 01:02:04;;;;;;;12.20;4.03;;;;;;;;;;5063958;28;20490;-62
2022/09/05 01:04:37;;;;;;;11.27;3.55;;;;;;;;;;5050699;22;20132;-62
2022/09/05 01:07:15;;;;;;;6.57;3.80;;;;;;;;;;5043393;28;20045;-62
2022/09/05 01:09:44;;;;;;;5.03;3.80;;;;;;;;;;5042840;28;20045;-62
2022/09/05 01:12:22;;;;;;;8.70;3.80;;;;;;;;;;5043203;28;20102;-62
2022/09/05 01:15:07;;;;;;;5.25;3.88;;;;;;;;;;5035510;28;20090;-62
2022/09/05 01:17:53;;;;;;;5.10;3.53;;;;;;;;;;5038987;28;20445;-62
2022/09/05 01:20:38;;;;;;;6.65;3.70;;;;;;;;;;5022839;28;20056;-62
2022/09/05 01:23:14;;;;;;;6.95;3.65;;;;;;;;;;5032903;28;20414;-62
2022/09/05 01:26:01;;;;;;;5.07;3.78;;;;;;;;;;5025388;28;20045;-62
2022/09/05 01:28:36;;;;;;;5.38;3.90;;;;;;;;;;5023787;28;20041;-62
2022/09/05 01:31:14;;;;;;;4.85;3.63;;;;;;;;;;5027835;28;20095;-62
2022/09/05 01:33:53;;;;;;;4.78;4.10;;;;;;;;;;5029790;28;20191;-62
2022/09/05 01:36:19;;;;;;;6.20;4.20;;;;;;;;;;5022801;28;20099;-62
2022/09/05 01:38:46;;;;;;;8.07;4.00;;;;;;;;;;5021583;28;20049;-62
2022/09/05 01:41:24;;;;;;;4.82;3.90;;;;;;;;;;5022883;28;20095;-62
2022/09/05 01:44:11;;;;;;;5.38;3.90;;;;;;;;;;5023041;28;20052;-62
2022/09/05 01:46:38;;;;;;;8.77;4.30;;;;;;;;;;5022216;28;20470;-62
2022/09/05 01:49:04;;;;;;;7.93;4.78;;;;;;;;;;5035678;28;20055;-62
2022/09/05 01:51:36;;;;;;;7.40;4.53;;;;;;;;;;5021258;28;20068;-62
2022/09/05 01:54:12;;;;;;;8.80;4.63;;;;;;;;;;5022676;28;20045;-62
2022/09/05 01:56:42;;;;;;;6.53;4.47;;;;;;;;;;5022348;28;20053;-62
2022/09/05 01:59:33;;;;;;;6.20;4.20;;;;;;;;;;5022816;28;20049;-62
2022/09/05 02:02:12;;;;;;;6.50;4.13;;;;;;;;;;5022937;28;20041;-62
2022/09/05 02:04:54;;;;;;;5.88;3.90;;;;;;;;;;5021274;28;20061;-62
2022/09/05 02:07:39;;;;;;;7.65;4.65;;;;;;;;;;5021844;28;20103;-62
2022/09/05 02:10:05;;;;;;;5.90;4.45;;;;;;;;;;5022498;28;20053;-62
2022/09/05 02:12:47;;;;;;;7.43;4.70;;;;;;;;;;5022440;28;20029;-62
2022/09/05 02:15:16;;;;;;;11.48;4.70;;;;;;;;;;5021778;28;20056;-62
2022/09/05 02:17:42;;;;;;;10.60;4.45;;;;;;;;;;5021929;28;20040;-62
2022/09/05 02:20:17;;;;;;;7.10;4.85;;;;;;;;;;5021702;28;20096;-62
2022/09/05 02:22:48;;;;;;;7.15;4.85;;;;;;;;;;5031734;28;20044;-62
2022/09/05 02:25:17;;;;;;;6.53;4.53;;;;;;;;;;5026387;28;20103;-62
2022/09/05 02:27:53;;;;;;;6.43;4.80;;;;;;;;;;5021994;28;20041;-62
2022/09/05 02:30:22;;;;;;;7.75;4.88;;;;;;;;;;5022294;28;20120;-62
2022/09/05 02:32:54;;;;;;;8.43;4.95;;;;;;;;;;5022324;28;20073;-62
2022/09/05 02:35:26;;;;;;;9.85;4.93;;;;;;;;;;5024345;28;20153;-62
2022/09/05 02:37:58;;;;;;;7.55;5.03;;;;;;;;;;5025522;28;20268;-62
2022/09/05 02:40:28;;;;;;;7.13;5.32;;;;;;;;;;5026348;28;20099;-62
2022/09/05 02:43:09;;;;;;;9.43;4.80;;;;;;;;;;5026901;28;20033;-62
2022/09/05 02:45:45;;;;;;;6.60;5.05;;;;;;;;;;5025963;28;20077;-62
2022/09/05 02:48:22;;;;;;;8.30;4.72;;;;;;;;;;5026308;28;20034;-62
2022/09/05 02:50:56;;;;;;;10.23;5.65;;;;;;;;;;5025113;28;20639;-62
2022/09/05 02:53:22;;;;;;;8.73;5.10;;;;;;;;;;5024716;28;20120;-62
2022/09/05 02:56:09;;;;;;;7.68;4.78;;;;;;;;;;5025826;28;20637;-62
2022/09/05 02:58:36;;;;;;;13.38;5.80;;;;;;;;;;5025889;28;20677;-62
2022/09/05 03:01:20;;;;;;;7.88;5.15;;;;;;;;;;5026123;28;20077;-62
2022/09/05 03:03:50;;;;;;;167.35;14.75;;;;;;;;;;5023340;28;20213;-62
2022/09/05 03:06:26;;;;;;;29.77;7.13;;;;;;;;;;5026254;28;20046;-62
2022/09/05 03:09:06;;;;;;;11.00;5.88;;;;;;;;;;5025879;28;20050;-62
2022/09/05 03:11:32;;;;;;;10.68;5.80;;;;;;;;;;5025170;28;20045;-62
2022/09/05 03:13:59;;;;;;;12.35;5.80;;;;;;;;;;5025397;28;20526;-62
2022/09/05 03:16:43;;;;;;;6.95;5.93;;;;;;;;;;5025520;28;20041;-62
2022/09/05 03:19:24;;;;;;;11.50;6.75;;;;;;;;;;5030833;28;20537;-62
2022/09/05 03:21:51;;;;;;;12.25;7.03;;;;;;;;;;5027384;28;20048;-62
2022/09/05 03:24:30;;;;;;;9.45;6.35;;;;;;;;;;5036758;28;20049;-62
2022/09/05 03:26:56;;;;;;;;;;;;;;;;;;5026476;28;20045;-62
2022/09/05 03:29:34;;;;;;;10.45;5.97;;;;;;;;;;5025727;28;19925;-62
2022/09/05 03:32:00;;;;;;;;;;;;;;;;;;5025685;28;20045;-62
2022/09/05 03:34:38;;;;;;;9.88;7.15;;;;;;;;;;5024335;28;19928;-62
2022/09/05 03:37:11;;;;;;;14.40;7.05;;;;;;;;;;5024127;28;20052;-62
2022/09/05 03:39:38;;;;;;;11.95;6.55;;;;;;;;;;5025430;28;20049;-62
2022/09/05 03:42:12;;;;;;;10.65;7.00;;;;;;;;;;5025128;28;20044;-62
2022/09/05 03:44:39;;;;;;;12.30;7.45;;;;;;;;;;5024664;28;20103;-62
2022/09/05 03:47:05;;;;;;;10.52;6.60;;;;;;;;;;5031804;28;21014;-62
2022/09/05 03:49:41;;;;;;;8.35;7.38;;;;;;;;;;5024450;28;20111;-62
2022/09/05 03:52:07;;;;;;;9.88;7.18;;;;;;;;;;5025448;28;20057;-62
2022/09/05 03:54:34;;;;;;;10.70;7.43;;;;;;;;;;5024476;28;20811;-62
2022/09/05 03:57:13;;;;;;;9.07;6.90;;;;;;;;;;5023366;28;20724;-62
2022/09/05 03:59:40;;;;;;;8.73;7.13;;;;;;;;;;5024771;28;20037;-62
2022/09/05 04:02:09;;;;;;;8.88;6.70;;;;;;;;;;5024674;28;20115;-62
2022/09/05 04:04:35;;;;;;;8.70;7.03;;;;;;;;;;5023854;28;20411;-62
2022/09/05 04:07:06;;;;;;;11.23;7.03;;;;;;;;;;5024789;28;20045;-62
2022/09/05 04:09:38;;;;;;;8.27;6.78;;;;;;;;;;5024278;28;20491;-62
2022/09/05 04:12:15;;;;;;;12.20;7.22;;;;;;;;;;5024840;28;20041;-62
2022/09/05 04:14:42;;;;;;;11.18;7.22;;;;;;;;;;5024295;28;20045;-62
2022/09/05 04:17:11;;;;;;;10.60;7.00;;;;;;;;;;5024540;28;20038;-62
2022/09/05 04:19:41;;;;;;;11.98;6.93;;;;;;;;;;5022951;28;20041;-62
2022/09/05 04:22:19;;;;;;;15.27;6.95;;;;;;;;;;5028643;28;20072;-62
2022/09/05 04:24:52;;;;;;;9.13;7.07;;;;;;;;;;5032492;28;20109;-62
2022/09/05 04:27:19;;;;;;;12.93;7.88;;;;;;;;;;5024538;28;20059;-62
2022/09/05 04:29:54;;;;;;;12.60;7.47;;;;;;;;;;5023816;28;20091;-62
2022/09/05 04:32:34;;;;;;;10.63;7.45;;;;;;;;;;5024180;28;20124;-62
2022/09/05 04:35:19;;;;;;;12.82;6.72;;;;;;;;;;5023562;28;20052;-61
2022/09/05 04:37:46;;;;;;;10.75;7.40;;;;;;;;;;5023486;28;20049;-62
2022/09/05 04:40:30;;;;;;;16.08;7.30;;;;;;;;;;5024169;28;20041;-62
2022/09/05 04:42:59;;;;;;;12.27;7.88;;;;;;;;;;5024474;28;20510;-62
2022/09/05 04:45:27;;;;;;;9.55;7.18;;;;;;;;;;5024367;28;20070;-62
2022/09/05 04:47:56;;;;;;;10.57;7.72;;;;;;;;;;5022642;28;20124;-62
2022/09/05 04:50:24;;;;;;;13.30;7.82;;;;;;;;;;5023590;28;20041;-62
2022/09/05 04:52:53;;;;;;;12.13;7.67;;;;;;;;;;5021999;28;20132;-62
2022/09/05 04:55:23;;;;;;;9.52;8.00;;;;;;;;;;5027737;28;20712;-62
2022/09/05 04:57:53;;;;;;;9.35;7.53;;;;;;;;;;5041150;28;20045;-60
2022/09/05 05:00:34;;;;;;;11.25;7.97;;;;;;;;;;5042313;28;20041;-61
2022/09/05 05:03:02;;;;;;;14.95;7.88;;;;;;;;;;5041483;28;20064;-62
2022/09/05 05:05:37;;;;;;;15.02;7.90;;;;;;;;;;5042891;28;20037;-62
2022/09/05 05:08:04;;;;;;;31.92;8.38;;;;;;;;;;5043741;28;20048;-62
2022/09/05 05:10:35;;;;;;;10.33;8.00;;;;;;;;;;5041290;28;20464;-63
2022/09/05 05:13:07;;;;;;;10.48;8.18;;;;;;;;;;5041900;28;20052;-63
2022/09/05 05:15:36;;;;;;;10.40;8.35;;;;;;;;;;5043574;28;20057;-62
2022/09/05 05:18:10;;;;;;;10.98;7.93;;;;;;;;;;5043567;28;20119;-62
2022/09/05 05:20:40;;;;;;;16.42;8.13;;;;;;;;;;5042761;28;20052;-62
2022/09/05 05:23:09;;;;;;;11.50;8.63;;;;;;;;;;5043428;28;20033;-60
2022/09/05 05:25:35;;;;;;;;;;;;;;;;;;5038490;28;20114;-61
2022/09/05 05:28:07;;;;;;;12.38;8.82;;;;;;;;;;5041847;28;19924;-60
2022/09/05 05:30:33;;;;;;;200.90;16.23;;;;;;;;;;5036173;28;20132;-60
2022/09/05 05:33:01;;;;;;;37.30;9.02;;;;;;;;;;5033045;28;20045;-60
2022/09/05 05:35:30;;;;;;;13.48;9.43;;;;;;;;;;5023035;28;20053;-60
2022/09/05 05:38:08;;;;;;;9.45;7.28;;;;;;;;;;5023570;28;20030;-59
2022/09/05 05:40:36;;;;;;;11.75;8.10;;;;;;;;;;5022835;28;20049;-60
2022/09/05 05:43:23;;;;;;;9.57;7.30;;;;;;;;;;5023094;28;20029;-62
2022/09/05 05:45:56;;;;;;;11.52;7.65;;;;;;;;;;5038665;28;20351;-61
2022/09/05 05:48:28;;;;;;;10.20;8.35;;;;;;;;;;5040920;28;20495;-61
2022/09/05 05:51:05;;;;;;;12.63;8.13;;;;;;;;;;5042417;28;20044;-61
2022/09/05 05:53:31;;;;;;;17.20;8.23;;;;;;;;;;5041864;28;20375;-61
2022/09/05 05:56:03;;;;;;;18.08;8.30;;;;;;;;;;5042022;28;20052;-60
2022/09/05 05:58:32;;;;;;;23.25;8.25;;;;;;;;;;5041267;28;20044;-61
2022/09/05 06:01:21;;;;;;;19.73;8.32;;;;;;;;;;5038806;28;20040;-61
2022/09/05 06:03:54;;;;;;;13.32;7.78;;;;;;;;;;5035352;28;20056;-61
2022/09/05 06:06:21;;;;;;;18.38;8.93;;;;;;;;;;5040887;28;20692;-61
2022/09/05 06:08:54;;;;;;;14.77;8.25;;;;;;;;;;5041591;28;20044;-61
2022/09/05 06:11:27;;;;;;;21.65;8.90;;;;;;;;;;5041710;28;20040;-61
2022/09/05 06:13:59;;;;;;;11.23;8.20;;;;;;;;;;5042348;28;20135;-61
2022/09/05 06:16:26;;;;;;;11.88;8.88;;;;;;;;;;5042521;28;20221;-61
2022/09/05 06:19:03;;;;;;;12.63;8.57;;;;;;;;;;5040736;28;20070;-61
2022/09/05 06:21:40;;;;;;;10.73;8.20;;;;;;;;;;5041784;28;20044;-61
2022/09/05 06:24:28;;;;;;;10.77;8.02;;;;;;;;;;5022251;28;20038;-61
2022/09/05 06:26:55;;;;;;;11.77;8.55;;;;;;;;;;5022350;28;20264;-61
2022/09/05 06:29:23;;;;;;;11.77;7.95;;;;;;;;;;5022366;28;20377;-61
2022/09/05 06:32:14;;;;;;;11.45;8.55;;;;;;;;;;5021577;28;20049;-61
2022/09/05 06:34:40;;;;;;;12.05;8.82;;;;;;;;;;5020939;28;20053;-61
2022/09/05 06:37:23;;;;;;;19.83;8.95;;;;;;;;;;5022267;28;20045;-61
2022/09/05 06:40:02;;;;;;;16.08;8.63;;;;;;;;;;5021865;28;20088;-61
2022/09/05 06:42:38;;;;;;;20.63;8.32;;;;;;;;;;5020182;28;20136;-61
2022/09/05 06:45:15;;;;;;;18.95;8.45;;;;;;;;;;5022367;28;20049;-61
2022/09/05 06:47:43;;;;;;;11.98;8.18;;;;;;;;;;5021629;28;20122;-61
2022/09/05 06:50:13;;;;;;;10.65;8.57;;;;;;;;;;5021260;28;20045;-61
2022/09/05 06:52:49;;;;;;;13.70;8.32;;;;;;;;;;5021125;28;20045;-61
2022/09/05 06:55:29;;;;;;;10.95;8.85;;;;;;;;;;5022114;28;20053;-62
2022/09/05 06:58:14;;;;;;;15.82;8.63;;;;;;;;;;5022176;28;20125;-61
2022/09/05 07:00:47;;;;;;;14.45;7.90;;;;;;;;;;5021789;28;20046;-61
2022/09/05 07:03:17;;;;;;;15.38;8.15;;;;;;;;;;5021336;28;20534;-61
2022/09/05 07:05:55;;;;;;;11.35;8.68;;;;;;;;;;5021878;28;20058;-61
2022/09/05 07:08:22;;;;;;;11.37;7.80;;;;;;;;;;5022197;28;20289;-61
2022/09/05 07:10:56;;;;;;;12.80;8.40;;;;;;;;;;5021945;28;20936;-61
2022/09/05 07:13:23;;;;;;;12.68;8.95;;;;;;;;;;5021389;28;20399;-61
2022/09/05 07:15:53;;;;;;;13.18;8.30;;;;;;;;;;5021474;28;20059;-61
2022/09/05 07:18:25;;;;;;;11.45;8.27;;;;;;;;;;5020814;28;20377;-61
2022/09/05 07:21:01;;;;;;;12.20;8.07;;;;;;;;;;5022156;28;20048;-61
2022/09/05 07:23:50;;;;;;;14.00;8.30;;;;;;;;;;5039489;28;20040;-61
2022/09/05 07:26:17;;;;;;;11.95;8.57;;;;;;;;;;5025454;28;20109;-61
2022/09/05 07:28:46;;;;;;;10.50;8.25;;;;;;;;;;5025023;28;20041;-61
2022/09/05 07:31:16;;;;;;;16.25;8.15;;;;;;;;;;5025311;28;20663;-61
2022/09/05 07:33:43;;;;;;;11.25;8.07;;;;;;;;;;5024408;28;20056;-61
2022/09/05 07:36:12;;;;;;;12.02;8.05;;;;;;;;;;5024876;28;20059;-61
2022/09/05 07:38:39;;;;;;;10.63;8.13;;;;;;;;;;5024738;28;20486;-61
2022/09/05 07:41:12;;;;;;;10.38;7.45;;;;;;;;;;5024931;28;20048;-61
2022/09/05 07:43:39;;;;;;;12.20;7.60;;;;;;;;;;5024718;28;20057;-62
2022/09/05 07:46:22;;;;;;;10.55;7.38;;;;;;;;;;5024645;28;20040;-61
2022/09/05 07:48:51;;;;;;;12.90;7.88;;;;;;;;;;5023739;28;20049;-61
2022/09/05 07:51:22;;;;;;;13.05;7.25;;;;;;;;;;5024006;28;20037;-61
2022/09/05 07:53:51;;;;;;;11.90;7.53;;;;;;;;;;5024723;28;20510;-61
2022/09/05 07:56:38;;;;;;;8.15;7.35;;;;;;;;;;5024491;28;20049;-62
2022/09/05 07:59:07;;;;;;;11.48;6.30;;;;;;;;;;5024557;28;20053;-62
2022/09/05 08:01:34;;;;;;;9.85;6.65;;;;;;;;;;5024027;28;20049;-61
2022/09/05 08:04:00;;;;;;;16.73;7.38;;;;;;;;;;5023807;28;20057;-61
2022/09/05 08:06:26;;;;;;;9.70;6.80;;;;;;;;;;5024917;28;20329;-61
2022/09/05 08:08:59;;;;;;;12.45;7.50;;;;;;;;;;5024398;28;20045;-61
2022/09/05 08:11:27;;;;;;;9.85;7.97;;;;;;;;;;5023632;28;20041;-61
2022/09/05 08:13:56;;;;;;;9.75;7.93;;;;;;;;;;5023657;28;20045;-61
2022/09/05 08:16:23;;;;;;;10.40;7.32;;;;;;;;;;5024437;28;20049;-61
2022/09/05 08:18:58;;;;;;;11.88;7.55;;;;;;;;;;5023906;28;20049;-62
2022/09/05 08:21:28;;;;;;;14.38;7.50;;;;;;;;;;5024841;28;20042;-61
2022/09/05 08:24:04;;;;;;;12.20;8.13;;;;;;;;;;5038092;28;20038;-61
2022/09/05 08:26:45;;;;;;;11.05;8.20;;;;;;;;;;5024172;28;20076;-61
2022/09/05 08:29:11;;;;;;;10.60;6.93;;;;;;;;;;5024675;28;20088;-62
2022/09/05 08:31:56;;;;;;;8.40;6.88;;;;;;;;;;5023054;28;20505;-61
2022/09/05 08:34:28;;;;;;;11.57;7.35;;;;;;;;;;5023710;28;20056;-61
2022/09/05 08:36:55;;;;;;;11.73;6.72;;;;;;;;;;5024425;28;20546;-61
2022/09/05 08:39:24;;;;;;;11.13;6.75;;;;;;;;;;5024300;28;20081;-61
2022/09/05 08:41:50;;;;;;;7.55;6.20;;;;;;;;;;5024125;28;20073;-61
2022/09/05 08:44:31;;;;;;;8.02;6.55;;;;;;;;;;5023775;28;20099;-61
2022/09/05 08:47:07;;;;;;;8.38;6.35;;;;;;;;;;5036699;28;20044;-61
2022/09/05 08:49:37;;;;;;;15.50;6.43;;;;;;;;;;5036833;28;20076;-62
2022/09/05 08:52:05;;;;;;;12.15;6.10;;;;;;;;;;5023917;28;20056;-61
2022/09/05 08:54:35;;;;;;;10.45;6.57;;;;;;;;;;5023169;28;20048;-62
2022/09/05 08:57:09;;;;;;;11.20;6.55;;;;;;;;;;5022494;28;20115;-61
2022/09/05 08:59:40;;;;;;;12.00;5.80;;;;;;;;;;5023268;28;20042;-61
2022/09/05 09:02:06;;;;;;;10.20;5.72;;;;;;;;;;5023262;28;20522;-61
2022/09/05 09:04:51;;;;;;;7.22;5.63;;;;;;;;;;5022434;28;20054;-62
2022/09/05 09:07:34;;;;;;;8.38;5.78;;;;;;;;;;5022884;28;20419;-62
2022/09/05 09:10:09;;;;;;;6.90;5.10;;;;;;;;;;5023488;28;20475;-62
2022/09/05 09:12:44;;;;;;;11.38;6.32;;;;;;;;;;5022428;28;20116;-62
2022/09/05 09:15:16;;;;;;;8.35;5.47;;;;;;;;;;5023458;28;20534;-61
2022/09/05 09:17:44;;;;;;;11.02;5.15;;;;;;;;;;5022288;28;20058;-62
2022/09/05 09:20:14;;;;;;;7.57;5.80;;;;;;;;;;5023345;28;20046;-62
2022/09/05 09:22:59;;;;;;;8.30;5.07;;;;;;;;;;5031785;28;20486;-61
2022/09/05 09:25:31;;;;;;;11.75;4.60;;;;;;;;;;5024591;28;20099;-61
2022/09/05 09:28:04;;;;;;;5.03;4.32;;;;;;;;;;5022320;28;20053;-62
2022/09/05 09:30:31;;;;;;;7.35;3.72;;;;;;;;;;5022456;28;20120;-61
2022/09/05 09:33:02;;;;;;;6.05;3.80;;;;;;;;;;5021909;28;20091;-62
2022/09/05 09:35:46;;;;;;;5.85;4.70;;;;;;;;;;5023022;28;20052;-62
2022/09/05 09:38:20;;;;;;;11.65;4.72;;;;;;;;;;5023104;28;20073;-62
2022/09/05 09:40:47;;;;;;;13.77;4.80;;;;;;;;;;5022238;28;20045;-62
2022/09/05 09:43:22;;;;;;;8.68;4.68;;;;;;;;;;5022061;28;20093;-62
2022/09/05 09:45:50;;;;;;;9.52;3.92;;;;;;;;;;5021843;28;20088;-62
2022/09/05 09:48:18;;;;;;;6.22;4.35;;;;;;;;;;5022077;28;20128;-62
2022/09/05 09:50:53;;;;;;;9.75;3.85;;;;;;;;;;5022407;28;20052;-62
2022/09/05 09:53:39;;;;;;;6.07;4.20;;;;;;;;;;5022106;28;20517;-62
2022/09/05 09:56:13;;;;;;;4.13;3.55;;;;;;;;;;5022393;28;20439;-62
2022/09/05 09:58:48;;;;;;;4.95;3.80;;;;;;;;;;5020953;28;20056;-62
2022/09/05 10:01:29;;;;;;;8.55;4.10;;;;;;;;;;5021785;28;20132;-62
2022/09/05 10:04:00;;;;;;;5.03;3.75;;;;;;;;;;5022196;28;20080;-61
2022/09/05 10:06:27;;;;;;;7.20;3.47;;;;;;;;;;5022360;28;20054;-62
2022/09/05 10:08:53;;;;;;;7.97;4.32;;;;;;;;;;5021142;28;20054;-62
2022/09/05 10:11:38;;;;;;;9.95;3.65;;;;;;;;;;5021378;28;20099;-61
2022/09/05 10:14:11;;;;;;;10.63;4.40;;;;;;;;;;5022609;28;20107;-61
2022/09/05 10:16:38;;;;;;;5.20;3.20;;;;;;;;;;5022405;28;20112;-61
2022/09/05 10:19:22;;;;;;;8.20;3.35;;;;;;;;;;5021332;28;20091;-62
2022/09/05 10:21:58;;;;;;;26.27;4.97;;;;;;;;;;5023763;28;20651;-61
2022/09/05 10:24:47;;;;;;;10.23;3.55;;;;;;;;;;5033530;28;20510;-62
2022/09/05 10:27:26;;;;;;;5.43;3.78;;;;;;;;;;5021863;28;20049;-62
2022/09/05 10:30:05;;;;;;;6.13;3.40;;;;;;;;;;5023162;28;20037;-62
2022/09/05 10:32:42;;;;;;;9.32;3.83;;;;;;;;;;5040559;28;20102;-61
2022/09/05 10:35:19;;;;;;;3.97;3.58;;;;;;;;;;5041767;28;20055;-61
2022/09/05 10:37:48;;;;;;;4.68;3.22;;;;;;;;;;5032080;28;21408;-62
2022/09/05 10:40:17;;;;;;;5.53;2.97;;;;;;;;;;5027453;28;20427;-61
2022/09/05 10:42:47;;;;;;;200.18;13.70;;;;;;;;;;5031653;28;20041;-61
2022/09/05 10:45:15;;;;;;;18.33;3.92;;;;;;;;;;5030249;28;20174;-61
2022/09/05 10:47:46;;;;;;;5.85;4.13;;;;;;;;;;5030617;28;20040;-61
2022/09/05 10:50:12;;;;;;;4.38;3.70;;;;;;;;;;5032791;28;20045;-61
2022/09/05 10:52:54;;;;;;;9.30;3.75;;;;;;;;;;5035800;28;20041;-60
2022/09/05 10:55:24;;;;;;;6.35;3.45;;;;;;;;;;5031479;28;20151;-61
2022/09/05 10:57:51;;;;;;;7.15;4.05;;;;;;;;;;5039319;28;20572;-61
2022/09/05 11:00:20;;;;;;;6.70;3.13;;;;;;;;;;5044222;28;20040;-61
2022/09/05 11:02:48;;;;;;;16.30;3.90;;;;;;;;;;5042978;28;20049;-61
2022/09/05 11:05:15;;;;;;;;;;;;;;;;;;5045294;28;20056;-61
2022/09/05 11:08:00;;;;;;;4.75;2.55;;;;;;;;;;5045041;28;19928;-61
2022/09/05 11:10:38;;;;;;;9.20;3.50;;;;;;;;;;5043172;28;20038;-61
2022/09/05 11:13:10;;;;;;;4.55;3.03;;;;;;;;;;5043951;28;20033;-61
2022/09/05 11:15:44;;;;;;;41.88;4.72;;;;;;;;;;5044691;28;20126;-61
2022/09/05 11:18:18;;;;;;;3.28;2.60;;;;;;;;;;5044111;28;20594;-61
2022/09/05 11:20:48;;;;;;;7.07;2.60;;;;;;;;;;5044986;28;20088;-61
2022/09/05 11:23:22;;;;;;;6.95;3.22;;;;;;;;;;5044268;28;20037;-61
2022/09/05 11:25:59;;;;;;;7.28;3.17;;;;;;;;;;5044197;28;20101;-61
2022/09/05 11:28:31;;;;;;;3.97;2.60;;;;;;;;;;5035396;28;20038;-61
2022/09/05 11:30:59;;;;;;;4.03;3.00;;;;;;;;;;5045915;28;20036;-61
2022/09/05 11:33:25;;;;;;;;;;;;;;;;;;5044774;28;20064;-60
2022/09/05 11:35:54;;;;;;;3.63;2.67;;;;;;;;;;5044732;28;20397;-61
2022/09/05 11:38:39;;;;;;;6.82;2.83;;;;;;;;;;5044251;28;20041;-61
2022/09/05 11:41:26;;;;;;;5.70;2.78;;;;;;;;;;5045053;28;20510;-61
2022/09/05 11:44:12;;;;;;;9.70;3.08;;;;;;;;;;5044847;28;20048;-61
2022/09/05 11:46:38;;;;;;;5.10;2.72;;;;;;;;;;5044236;28;20115;-61
2022/09/05 11:49:31;;;;;;;5.95;3.08;;;;;;;;;;5044100;28;20045;-61
2022/09/05 11:52:03;;;;;;;13.20;2.63;;;;;;;;;;5036529;28;20041;-61
2022/09/05 11:54:48;;;;;;;6.68;2.40;;;;;;;;;;5043322;28;20123;-61
2022/09/05 11:57:24;;;;;;;6.57;2.10;;;;;;;;;;5044430;28;20413;-61
2022/09/05 12:00:11;;;;;;;8.32;2.47;;;;;;;;;;5043664;28;20040;-61
2022/09/05 12:02:50;;;;;;;3.40;2.15;;;;;;;;;;5043308;28;20171;-61
2022/09/05 12:05:17;;;;;;;7.68;2.38;;;;;;;;;;5044327;28;20053;-61
2022/09/05 12:08:02;;;;;;;7.90;2.40;;;;;;;;;;5043573;28;20052;-61
2022/09/05 12:10:32;;;;;;;6.65;2.50;;;;;;;;;;5035245;28;20128;-61
2022/09/05 12:12:59;;;;;;;3.97;2.40;;;;;;;;;;5044295;28;20084;-61
2022/09/05 12:15:26;;;;;;;6.43;2.10;;;;;;;;;;5045140;28;20063;-61
2022/09/05 12:18:02;;;;;;;3.40;2.42;;;;;;;;;;5042378;28;20044;-61
2022/09/05 12:20:29;;;;;;;2.85;2.05;;;;;;;;;;5044578;28;20048;-61
2022/09/05 12:23:14;;;;;;;4.75;2.30;;;;;;;;;;5045000;28;20037;-61
2022/09/05 12:25:56;;;;;;;28.33;3.55;;;;;;;;;;5024311;28;20754;-61
2022/09/05 12:28:32;;;;;;;13.93;2.38;;;;;;;;;;5024425;28;20041;-61
2022/09/05 12:31:11;;;;;;;6.53;2.10;;;;;;;;;;5024932;28;20077;-61
2022/09/05 12:33:47;;;;;;;2.65;2.28;;;;;;;;;;5022832;28;20108;-61
2022/09/05 12:36:16;;;;;;;4.22;2.35;;;;;;;;;;5023986;28;20546;-61
2022/09/05 12:38:48;;;;;;;5.72;2.45;;;;;;;;;;5024051;28;20037;-61
2022/09/05 12:41:16;;;;;;;143.05;9.68;;;;;;;;;;5024293;28;20128;-60
2022/09/05 12:43:47;;;;;;;5.28;2.13;;;;;;;;;;5023592;28;20041;-61
2022/09/05 12:46:13;;;;;;;3.75;2.30;;;;;;;;;;5023558;28;20052;-61
2022/09/05 12:48:45;;;;;;;8.02;2.40;;;;;;;;;;5022906;28;20462;-61
2022/09/05 12:51:18;;;;;;;11.52;2.78;;;;;;;;;;5023478;28;20855;-60
2022/09/05 12:53:48;;;;;;;4.20;2.10;;;;;;;;;;5023722;28;20048;-60
2022/09/05 12:56:18;;;;;;;5.00;1.98;;;;;;;;;;5033809;28;20041;-60
2022/09/05 12:58:46;;;;;;;3.58;2.38;;;;;;;;;;5040775;28;20080;-61
2022/09/05 13:01:18;;;;;;;3.53;2.47;;;;;;;;;;5042945;28;20025;-60
2022/09/05 13:03:46;;;;;;;3.75;2.15;;;;;;;;;;5041799;28;20079;-61
2022/09/05 13:06:20;;;;;;;8.63;2.38;;;;;;;;;;5042802;28;20045;-61
2022/09/05 13:08:48;;;;;;;3.65;2.60;;;;;;;;;;5042768;28;20064;-61
2022/09/05 13:11:17;;;;;;;6.72;2.20;;;;;;;;;;5041815;28;20068;-62
2022/09/05 13:14:02;;;;;;;3.92;2.38;;;;;;;;;;5042514;28;20048;-62
2022/09/05 13:16:29;;;;;;;3.22;2.78;;;;;;;;;;5043300;28;20044;-63
2022/09/05 13:19:01;;;;;;;5.05;2.60;;;;;;;;;;5041790;28;20041;-62
2022/09/05 13:21:29;;;;;;;5.28;2.40;;;;;;;;;;5042677;28;20056;-62
2022/09/05 13:24:04;;;;;;;3.33;2.45;;;;;;;;;;5038248;28;20038;-62
2022/09/05 13:26:32;;;;;;;3.60;2.20;;;;;;;;;;5022808;28;20053;-62
2022/09/05 13:29:01;;;;;;;3.78;2.65;;;;;;;;;;5028676;28;20044;-62
2022/09/05 13:31:40;;;;;;;7.68;2.50;;;;;;;;;;5022474;28;20073;-62
2022/09/05 13:34:13;;;;;;;10.55;3.03;;;;;;;;;;5022096;28;20041;-62
2022/09/05 13:36:45;;;;;;;3.70;2.40;;;;;;;;;;5023018;28;20049;-63
2022/09/05 13:39:12;;;;;;;7.82;2.53;;;;;;;;;;5022546;28;20129;-62
2022/09/05 13:42:02;;;;;;;3.15;2.33;;;;;;;;;;5022754;28;20502;-62
2022/09/05 13:44:29;;;;;;;4.57;2.85;;;;;;;;;;5041091;28;20122;-62
2022/09/05 13:46:59;;;;;;;5.10;2.50;;;;;;;;;;5042929;28;20083;-62
2022/09/05 13:49:29;;;;;;;3.47;3.08;;;;;;;;;;5042308;28;20117;-62
2022/09/05 13:52:04;;;;;;;2.95;2.53;;;;;;;;;;5042759;28;20044;-62
2022/09/05 13:54:43;;;;;;;6.32;2.80;;;;;;;;;;5042250;28;20041;-63
2022/09/05 13:57:16;;;;;;;3.08;2.65;;;;;;;;;;5042379;28;20049;-62
2022/09/05 14:00:02;;;;;;;3.30;2.80;;;;;;;;;;5042087;28;20109;-62
2022/09/05 14:02:28;;;;;;;4.18;2.50;;;;;;;;;;5040707;28;20449;-62
2022/09/05 14:05:01;;;;;;;3.58;2.30;;;;;;;;;;5042005;28;20061;-62
2022/09/05 14:07:43;;;;;;;7.47;2.70;;;;;;;;;;5041374;28;20501;-62
2022/09/05 14:10:15;;;;;;;5.93;2.50;;;;;;;;;;5039439;28;20056;-62
2022/09/05 14:12:47;;;;;;;9.93;2.97;;;;;;;;;;5041743;28;20036;-62
2022/09/05 14:15:13;;;;;;;3.47;2.33;;;;;;;;;;5042171;28;20055;-62
2022/09/05 14:17:46;;;;;;;6.10;2.42;;;;;;;;;;5040933;28;20037;-62
2022/09/05 14:23:05;;;;;;;4.95;2.55;;;;;;;;;;5042234;28;20044;-61
2022/09/05 14:25:38;;;;;;;6.97;2.70;;;;;;;;;;5023111;28;20080;-62
2022/09/05 14:28:09;;;;;;;3.80;2.65;;;;;;;;;;5022553;28;20046;-62
2022/09/05 14:30:38;;;;;;;3.88;2.70;;;;;;;;;;5021236;28;20131;-61
2022/09/05 14:33:23;;;;;;;5.68;2.78;;;;;;;;;;5031585;28;20049;-62
2022/09/05 14:35:52;;;;;;;4.75;2.72;;;;;;;;;;5041811;28;20045;-61
2022/09/05 14:38:28;;;;;;;3.92;2.78;;;;;;;;;;5041800;28;20041;-61
2022/09/05 14:41:13;;;;;;;7.28;2.78;;;;;;;;;;5039869;28;20658;-63
2022/09/05 14:43:55;;;;;;;4.53;2.70;;;;;;;;;;5040665;28;20098;-61
2022/09/05 14:46:31;;;;;;;6.28;3.03;;;;;;;;;;5040931;28;20107;-61
2022/09/05 14:49:09;;;;;;;52.75;5.35;;;;;;;;;;5040995;28;20041;-61
2022/09/05 14:51:41;;;;;;;12.30;2.53;;;;;;;;;;5041645;28;20406;-61
2022/09/05 14:54:13;;;;;;;5.10;2.45;;;;;;;;;;5041591;28;20052;-61
2022/09/05 14:56:57;;;;;;;8.00;2.90;;;;;;;;;;5041584;28;20045;-61
2022/09/05 14:59:25;;;;;;;2.65;2.28;;;;;;;;;;5040977;28;20140;-61
2022/09/05 15:01:52;;;;;;;8.18;2.72;;;;;;;;;;5040762;28;20514;-61
2022/09/05 15:04:21;;;;;;;4.57;2.23;;;;;;;;;;5041410;28;20518;-61
2022/09/05 15:07:03;;;;;;;4.65;2.90;;;;;;;;;;5041531;28;20367;-61
2022/09/05 15:09:30;;;;;;;4.35;2.50;;;;;;;;;;5040955;28;20128;-62
2022/09/05 15:11:58;;;;;;;6.68;2.75;;;;;;;;;;5040655;28;20134;-61
2022/09/05 15:14:27;;;;;;;18.02;3.65;;;;;;;;;;5041626;28;20049;-61
2022/09/05 15:17:03;;;;;;;7.10;2.67;;;;;;;;;;5040987;28;20047;-61